sensor_id;sensor_type;location;lat;lon;timestamp;P1;durP1;ratioP1;P2;durP2;ratioP2
75429;SDS011;64127;51.488;5.462;2023-04-06T00:00:16;11.93;;;10.40;;
75429;SDS011;64127;51.488;5.462;2023-04-06T00:02:48;11.50;;;9.53;;
75429;SDS011;64127;51.488;5.462;2023-04-06T00:05:21;13.00;;;10.13;;
75429;SDS011;64127;51.488;5.462;2023-04-06T00:07:54;12.90;;;10.77;;
75429;SDS011;64127;51.488;5.462;2023-04-06T00:10:27;12.60;;;10.70;;
75429;SDS011;64127;51.488;5.462;2023-04-06T00:12:59;12.20;;;10.13;;
75429;SDS011;64127;51.488;5.462;2023-04-06T00:15:31;11.67;;;9.90;;
75429;SDS011;64127;51.488;5.462;2023-04-06T00:18:03;10.37;;;9.27;;
75429;SDS011;64127;51.488;5.462;2023-04-06T00:20:35;11.43;;;10.23;;
75429;SDS011;64127;51.488;5.462;2023-04-06T00:23:08;10.70;;;9.60;;
75429;SDS011;64127;51.488;5.462;2023-04-06T00:25:40;10.67;;;9.63;;
75429;SDS011;64127;51.488;5.462;2023-04-06T00:28:12;12.80;;;10.47;;
75429;SDS011;64127;51.488;5.462;2023-04-06T00:30:44;12.67;;;9.90;;
75429;SDS011;64127;51.488;5.462;2023-04-06T00:33:16;11.10;;;9.83;;
75429;SDS011;64127;51.488;5.462;2023-04-06T00:35:48;10.77;;;9.63;;
75429;SDS011;64127;51.488;5.462;2023-04-06T00:38:21;12.00;;;9.90;;
75429;SDS011;64127;51.488;5.462;2023-04-06T00:40:53;11.53;;;9.97;;
75429;SDS011;64127;51.488;5.462;2023-04-06T00:43:25;10.50;;;9.50;;
75429;SDS011;64127;51.488;5.462;2023-04-06T00:45:57;11.17;;;9.67;;
75429;SDS011;64127;51.488;5.462;2023-04-06T00:48:29;11.23;;;10.20;;
75429;SDS011;64127;51.488;5.462;2023-04-06T00:51:02;11.00;;;8.73;;
75429;SDS011;64127;51.488;5.462;2023-04-06T00:53:34;12.70;;;9.53;;
75429;SDS011;64127;51.488;5.462;2023-04-06T00:56:07;11.57;;;9.30;;
75429;SDS011;64127;51.488;5.462;2023-04-06T00:58:41;11.33;;;9.73;;
75429;SDS011;64127;51.488;5.462;2023-04-06T01:01:13;10.43;;;9.33;;
75429;SDS011;64127;51.488;5.462;2023-04-06T01:03:45;12.50;;;10.10;;
75429;SDS011;64127;51.488;5.462;2023-04-06T01:06:20;12.63;;;9.60;;
75429;SDS011;64127;51.488;5.462;2023-04-06T01:08:52;12.60;;;10.30;;
75429;SDS011;64127;51.488;5.462;2023-04-06T01:11:24;16.10;;;10.77;;
75429;SDS011;64127;51.488;5.462;2023-04-06T01:13:57;12.57;;;10.83;;
75429;SDS011;64127;51.488;5.462;2023-04-06T01:16:29;15.40;;;11.10;;
75429;SDS011;64127;51.488;5.462;2023-04-06T01:19:06;12.50;;;10.57;;
75429;SDS011;64127;51.488;5.462;2023-04-06T01:21:43;12.97;;;10.93;;
75429;SDS011;64127;51.488;5.462;2023-04-06T01:24:15;16.10;;;11.47;;
75429;SDS011;64127;51.488;5.462;2023-04-06T01:26:47;13.70;;;11.60;;
75429;SDS011;64127;51.488;5.462;2023-04-06T01:29:19;12.43;;;11.13;;
75429;SDS011;64127;51.488;5.462;2023-04-06T01:31:51;13.63;;;11.27;;
75429;SDS011;64127;51.488;5.462;2023-04-06T01:34:23;13.20;;;10.97;;
75429;SDS011;64127;51.488;5.462;2023-04-06T01:36:55;15.63;;;11.57;;
75429;SDS011;64127;51.488;5.462;2023-04-06T01:39:27;16.73;;;11.80;;
75429;SDS011;64127;51.488;5.462;2023-04-06T01:42:00;15.20;;;11.07;;
75429;SDS011;64127;51.488;5.462;2023-04-06T01:44:32;12.60;;;11.27;;
75429;SDS011;64127;51.488;5.462;2023-04-06T01:47:04;16.57;;;12.67;;
75429;SDS011;64127;51.488;5.462;2023-04-06T01:49:36;13.77;;;12.00;;
75429;SDS011;64127;51.488;5.462;2023-04-06T01:52:08;13.93;;;11.77;;
75429;SDS011;64127;51.488;5.462;2023-04-06T01:54:40;15.00;;;11.97;;
75429;SDS011;64127;51.488;5.462;2023-04-06T01:57:12;13.97;;;11.87;;
75429;SDS011;64127;51.488;5.462;2023-04-06T01:59:44;14.13;;;12.17;;
75429;SDS011;64127;51.488;5.462;2023-04-06T02:02:16;13.33;;;11.23;;
75429;SDS011;64127;51.488;5.462;2023-04-06T02:04:48;13.50;;;11.77;;
75429;SDS011;64127;51.488;5.462;2023-04-06T02:07:20;15.00;;;12.27;;
75429;SDS011;64127;51.488;5.462;2023-04-06T02:09:53;14.57;;;12.57;;
75429;SDS011;64127;51.488;5.462;2023-04-06T02:12:27;14.23;;;12.23;;
75429;SDS011;64127;51.488;5.462;2023-04-06T02:14:59;15.37;;;13.40;;
75429;SDS011;64127;51.488;5.462;2023-04-06T02:17:31;14.60;;;12.50;;
75429;SDS011;64127;51.488;5.462;2023-04-06T02:20:03;17.27;;;13.23;;
75429;SDS011;64127;51.488;5.462;2023-04-06T02:22:35;17.40;;;13.30;;
75429;SDS011;64127;51.488;5.462;2023-04-06T02:25:07;14.10;;;12.50;;
75429;SDS011;64127;51.488;5.462;2023-04-06T02:27:40;15.00;;;12.53;;
75429;SDS011;64127;51.488;5.462;2023-04-06T02:30:12;14.63;;;12.00;;
75429;SDS011;64127;51.488;5.462;2023-04-06T02:32:44;14.77;;;13.17;;
75429;SDS011;64127;51.488;5.462;2023-04-06T02:35:16;16.30;;;13.33;;
75429;SDS011;64127;51.488;5.462;2023-04-06T02:37:48;16.67;;;13.40;;
75429;SDS011;64127;51.488;5.462;2023-04-06T02:40:20;14.93;;;13.33;;
75429;SDS011;64127;51.488;5.462;2023-04-06T02:42:52;16.93;;;14.10;;
75429;SDS011;64127;51.488;5.462;2023-04-06T02:45:24;16.03;;;14.33;;
75429;SDS011;64127;51.488;5.462;2023-04-06T02:47:57;17.33;;;13.33;;
75429;SDS011;64127;51.488;5.462;2023-04-06T02:50:29;15.73;;;13.93;;
75429;SDS011;64127;51.488;5.462;2023-04-06T02:53:01;15.20;;;13.60;;
75429;SDS011;64127;51.488;5.462;2023-04-06T02:55:33;18.30;;;14.07;;
75429;SDS011;64127;51.488;5.462;2023-04-06T02:58:05;16.97;;;14.13;;
75429;SDS011;64127;51.488;5.462;2023-04-06T03:00:38;16.10;;;14.27;;
75429;SDS011;64127;51.488;5.462;2023-04-06T03:03:10;18.57;;;14.20;;
75429;SDS011;64127;51.488;5.462;2023-04-06T03:05:42;16.47;;;13.60;;
75429;SDS011;64127;51.488;5.462;2023-04-06T03:08:14;15.83;;;14.07;;
75429;SDS011;64127;51.488;5.462;2023-04-06T03:10:46;16.90;;;13.53;;
75429;SDS011;64127;51.488;5.462;2023-04-06T03:13:18;18.67;;;14.63;;
75429;SDS011;64127;51.488;5.462;2023-04-06T03:15:50;16.17;;;14.43;;
75429;SDS011;64127;51.488;5.462;2023-04-06T03:18:22;15.43;;;13.43;;
75429;SDS011;64127;51.488;5.462;2023-04-06T03:20:56;18.37;;;13.50;;
75429;SDS011;64127;51.488;5.462;2023-04-06T03:23:28;16.73;;;14.33;;
75429;SDS011;64127;51.488;5.462;2023-04-06T03:26:01;16.80;;;13.20;;
75429;SDS011;64127;51.488;5.462;2023-04-06T03:28:34;15.33;;;13.60;;
75429;SDS011;64127;51.488;5.462;2023-04-06T03:31:06;15.40;;;13.40;;
75429;SDS011;64127;51.488;5.462;2023-04-06T03:33:39;15.83;;;13.67;;
75429;SDS011;64127;51.488;5.462;2023-04-06T03:36:10;14.60;;;13.07;;
75429;SDS011;64127;51.488;5.462;2023-04-06T03:38:42;16.97;;;13.80;;
75429;SDS011;64127;51.488;5.462;2023-04-06T03:41:14;17.20;;;13.70;;
75429;SDS011;64127;51.488;5.462;2023-04-06T03:43:47;16.00;;;13.97;;
75429;SDS011;64127;51.488;5.462;2023-04-06T03:46:19;17.77;;;14.00;;
75429;SDS011;64127;51.488;5.462;2023-04-06T03:48:51;15.77;;;13.73;;
75429;SDS011;64127;51.488;5.462;2023-04-06T03:51:23;16.23;;;13.73;;
75429;SDS011;64127;51.488;5.462;2023-04-06T03:53:55;16.50;;;13.37;;
75429;SDS011;64127;51.488;5.462;2023-04-06T03:56:27;15.87;;;13.33;;
75429;SDS011;64127;51.488;5.462;2023-04-06T03:58:59;16.50;;;13.23;;
75429;SDS011;64127;51.488;5.462;2023-04-06T04:01:31;15.40;;;13.77;;
75429;SDS011;64127;51.488;5.462;2023-04-06T04:04:03;16.50;;;14.43;;
75429;SDS011;64127;51.488;5.462;2023-04-06T04:06:35;15.70;;;13.70;;
75429;SDS011;64127;51.488;5.462;2023-04-06T04:09:07;16.20;;;13.53;;
75429;SDS011;64127;51.488;5.462;2023-04-06T04:11:40;16.67;;;14.00;;
75429;SDS011;64127;51.488;5.462;2023-04-06T04:14:12;16.10;;;14.27;;
75429;SDS011;64127;51.488;5.462;2023-04-06T04:16:44;15.97;;;13.53;;
75429;SDS011;64127;51.488;5.462;2023-04-06T04:19:16;16.73;;;13.60;;
75429;SDS011;64127;51.488;5.462;2023-04-06T04:21:48;15.70;;;12.63;;
75429;SDS011;64127;51.488;5.462;2023-04-06T04:24:20;17.37;;;14.00;;
75429;SDS011;64127;51.488;5.462;2023-04-06T04:26:52;15.97;;;14.23;;
75429;SDS011;64127;51.488;5.462;2023-04-06T04:29:24;19.20;;;13.47;;
75429;SDS011;64127;51.488;5.462;2023-04-06T04:31:56;17.13;;;14.10;;
75429;SDS011;64127;51.488;5.462;2023-04-06T04:34:29;15.47;;;13.37;;
75429;SDS011;64127;51.488;5.462;2023-04-06T04:37:01;17.30;;;13.43;;
75429;SDS011;64127;51.488;5.462;2023-04-06T04:39:33;16.87;;;14.17;;
75429;SDS011;64127;51.488;5.462;2023-04-06T04:42:05;16.87;;;13.30;;
75429;SDS011;64127;51.488;5.462;2023-04-06T04:44:37;16.93;;;13.47;;
75429;SDS011;64127;51.488;5.462;2023-04-06T04:47:09;16.83;;;14.27;;
75429;SDS011;64127;51.488;5.462;2023-04-06T04:49:41;15.77;;;13.47;;
75429;SDS011;64127;51.488;5.462;2023-04-06T04:52:13;17.98;;;15.98;;
75429;SDS011;64127;51.488;5.462;2023-04-06T04:54:45;15.87;;;14.27;;
75429;SDS011;64127;51.488;5.462;2023-04-06T04:57:18;17.00;;;14.27;;
75429;SDS011;64127;51.488;5.462;2023-04-06T04:59:50;19.57;;;14.17;;
75429;SDS011;64127;51.488;5.462;2023-04-06T05:02:22;15.83;;;13.83;;
75429;SDS011;64127;51.488;5.462;2023-04-06T05:04:54;16.87;;;13.93;;
75429;SDS011;64127;51.488;5.462;2023-04-06T05:07:26;16.33;;;14.47;;
75429;SDS011;64127;51.488;5.462;2023-04-06T05:09:58;16.27;;;13.43;;
75429;SDS011;64127;51.488;5.462;2023-04-06T05:12:30;16.43;;;13.90;;
75429;SDS011;64127;51.488;5.462;2023-04-06T05:15:03;16.27;;;13.50;;
75429;SDS011;64127;51.488;5.462;2023-04-06T05:17:36;18.30;;;13.57;;
75429;SDS011;64127;51.488;5.462;2023-04-06T05:20:08;18.00;;;13.67;;
75429;SDS011;64127;51.488;5.462;2023-04-06T05:22:41;18.00;;;15.07;;
75429;SDS011;64127;51.488;5.462;2023-04-06T05:25:13;15.63;;;13.70;;
75429;SDS011;64127;51.488;5.462;2023-04-06T05:27:46;17.63;;;13.60;;
75429;SDS011;64127;51.488;5.462;2023-04-06T05:30:18;16.43;;;14.27;;
75429;SDS011;64127;51.488;5.462;2023-04-06T05:32:51;18.50;;;14.80;;
75429;SDS011;64127;51.488;5.462;2023-04-06T05:35:23;16.37;;;13.93;;
75429;SDS011;64127;51.488;5.462;2023-04-06T05:37:56;17.20;;;14.43;;
75429;SDS011;64127;51.488;5.462;2023-04-06T05:40:28;16.47;;;13.77;;
75429;SDS011;64127;51.488;5.462;2023-04-06T05:43:00;17.97;;;13.90;;
75429;SDS011;64127;51.488;5.462;2023-04-06T05:45:33;15.23;;;13.53;;
75429;SDS011;64127;51.488;5.462;2023-04-06T05:48:06;16.47;;;13.90;;
75429;SDS011;64127;51.488;5.462;2023-04-06T05:50:38;15.70;;;14.00;;
75429;SDS011;64127;51.488;5.462;2023-04-06T05:53:10;16.77;;;13.97;;
75429;SDS011;64127;51.488;5.462;2023-04-06T05:55:42;18.20;;;13.17;;
75429;SDS011;64127;51.488;5.462;2023-04-06T05:58:14;16.10;;;13.43;;
75429;SDS011;64127;51.488;5.462;2023-04-06T06:00:46;14.57;;;13.03;;
75429;SDS011;64127;51.488;5.462;2023-04-06T06:03:18;18.73;;;13.27;;
75429;SDS011;64127;51.488;5.462;2023-04-06T06:05:50;17.37;;;13.23;;
75429;SDS011;64127;51.488;5.462;2023-04-06T06:08:23;16.00;;;13.73;;
75429;SDS011;64127;51.488;5.462;2023-04-06T06:10:55;15.70;;;13.07;;
75429;SDS011;64127;51.488;5.462;2023-04-06T06:13:27;17.20;;;13.27;;
75429;SDS011;64127;51.488;5.462;2023-04-06T06:15:59;16.70;;;13.37;;
75429;SDS011;64127;51.488;5.462;2023-04-06T06:18:32;15.27;;;12.53;;
75429;SDS011;64127;51.488;5.462;2023-04-06T06:21:04;15.77;;;12.80;;
75429;SDS011;64127;51.488;5.462;2023-04-06T06:23:36;18.10;;;13.83;;
75429;SDS011;64127;51.488;5.462;2023-04-06T06:26:08;17.23;;;12.87;;
75429;SDS011;64127;51.488;5.462;2023-04-06T06:28:40;15.77;;;13.67;;
75429;SDS011;64127;51.488;5.462;2023-04-06T06:31:12;16.87;;;12.70;;
75429;SDS011;64127;51.488;5.462;2023-04-06T06:33:44;16.10;;;12.97;;
75429;SDS011;64127;51.488;5.462;2023-04-06T06:36:17;15.87;;;13.10;;
75429;SDS011;64127;51.488;5.462;2023-04-06T06:38:49;17.30;;;13.30;;
75429;SDS011;64127;51.488;5.462;2023-04-06T06:41:21;15.50;;;13.10;;
75429;SDS011;64127;51.488;5.462;2023-04-06T06:43:53;19.60;;;14.20;;
75429;SDS011;64127;51.488;5.462;2023-04-06T06:46:25;18.23;;;13.23;;
75429;SDS011;64127;51.488;5.462;2023-04-06T06:48:58;17.73;;;12.57;;
75429;SDS011;64127;51.488;5.462;2023-04-06T06:51:31;16.37;;;13.43;;
75429;SDS011;64127;51.488;5.462;2023-04-06T06:54:03;17.33;;;13.60;;
75429;SDS011;64127;51.488;5.462;2023-04-06T06:56:35;16.63;;;13.70;;
75429;SDS011;64127;51.488;5.462;2023-04-06T06:59:09;17.13;;;13.17;;
75429;SDS011;64127;51.488;5.462;2023-04-06T07:01:41;15.57;;;13.37;;
75429;SDS011;64127;51.488;5.462;2023-04-06T07:04:13;14.87;;;13.10;;
75429;SDS011;64127;51.488;5.462;2023-04-06T07:06:45;19.67;;;13.37;;
75429;SDS011;64127;51.488;5.462;2023-04-06T07:09:17;14.90;;;13.30;;
75429;SDS011;64127;51.488;5.462;2023-04-06T07:11:50;17.83;;;13.73;;
75429;SDS011;64127;51.488;5.462;2023-04-06T07:14:22;17.63;;;13.30;;
75429;SDS011;64127;51.488;5.462;2023-04-06T07:16:54;14.13;;;12.43;;
75429;SDS011;64127;51.488;5.462;2023-04-06T07:19:26;15.60;;;12.90;;
75429;SDS011;64127;51.488;5.462;2023-04-06T07:21:58;17.20;;;13.73;;
75429;SDS011;64127;51.488;5.462;2023-04-06T07:24:32;14.57;;;12.73;;
75429;SDS011;64127;51.488;5.462;2023-04-06T07:27:04;14.43;;;12.80;;
75429;SDS011;64127;51.488;5.462;2023-04-06T07:29:36;15.63;;;12.80;;
75429;SDS011;64127;51.488;5.462;2023-04-06T07:32:08;15.43;;;12.90;;
75429;SDS011;64127;51.488;5.462;2023-04-06T07:34:41;16.67;;;13.07;;
75429;SDS011;64127;51.488;5.462;2023-04-06T07:37:13;15.37;;;13.20;;
75429;SDS011;64127;51.488;5.462;2023-04-06T07:39:45;14.50;;;12.60;;
75429;SDS011;64127;51.488;5.462;2023-04-06T07:42:17;19.67;;;12.80;;
75429;SDS011;64127;51.488;5.462;2023-04-06T07:44:49;15.73;;;13.13;;
75429;SDS011;64127;51.488;5.462;2023-04-06T07:47:22;14.57;;;12.97;;
75429;SDS011;64127;51.488;5.462;2023-04-06T07:49:54;16.37;;;13.07;;
75429;SDS011;64127;51.488;5.462;2023-04-06T07:52:29;15.63;;;13.00;;
75429;SDS011;64127;51.488;5.462;2023-04-06T07:55:03;18.00;;;13.47;;
75429;SDS011;64127;51.488;5.462;2023-04-06T07:57:35;16.30;;;13.40;;
75429;SDS011;64127;51.488;5.462;2023-04-06T08:00:08;18.70;;;13.53;;
75429;SDS011;64127;51.488;5.462;2023-04-06T08:02:40;18.53;;;13.67;;
75429;SDS011;64127;51.488;5.462;2023-04-06T08:05:13;16.03;;;13.77;;
75429;SDS011;64127;51.488;5.462;2023-04-06T08:07:45;15.63;;;13.37;;
75429;SDS011;64127;51.488;5.462;2023-04-06T08:10:17;15.40;;;13.27;;
75429;SDS011;64127;51.488;5.462;2023-04-06T08:12:49;17.57;;;12.87;;
75429;SDS011;64127;51.488;5.462;2023-04-06T08:15:21;15.43;;;13.33;;
75429;SDS011;64127;51.488;5.462;2023-04-06T08:17:53;16.43;;;13.43;;
75429;SDS011;64127;51.488;5.462;2023-04-06T08:20:28;16.33;;;12.97;;
75429;SDS011;64127;51.488;5.462;2023-04-06T08:23:00;17.23;;;12.23;;
75429;SDS011;64127;51.488;5.462;2023-04-06T08:25:35;16.77;;;13.07;;
75429;SDS011;64127;51.488;5.462;2023-04-06T08:28:08;19.87;;;14.47;;
75429;SDS011;64127;51.488;5.462;2023-04-06T08:30:41;18.20;;;14.13;;
75429;SDS011;64127;51.488;5.462;2023-04-06T08:33:14;18.20;;;14.57;;
75429;SDS011;64127;51.488;5.462;2023-04-06T08:35:46;20.13;;;13.40;;
75429;SDS011;64127;51.488;5.462;2023-04-06T08:38:18;19.97;;;13.03;;
75429;SDS011;64127;51.488;5.462;2023-04-06T08:40:50;17.10;;;14.23;;
75429;SDS011;64127;51.488;5.462;2023-04-06T08:43:23;15.80;;;13.03;;
75429;SDS011;64127;51.488;5.462;2023-04-06T08:45:58;15.73;;;13.13;;
75429;SDS011;64127;51.488;5.462;2023-04-06T08:48:31;14.77;;;13.17;;
75429;SDS011;64127;51.488;5.462;2023-04-06T08:51:06;18.57;;;14.20;;
75429;SDS011;64127;51.488;5.462;2023-04-06T08:53:39;18.13;;;13.50;;
75429;SDS011;64127;51.488;5.462;2023-04-06T08:56:12;15.90;;;13.87;;
75429;SDS011;64127;51.488;5.462;2023-04-06T08:58:44;15.97;;;13.13;;
75429;SDS011;64127;51.488;5.462;2023-04-06T09:01:18;19.23;;;13.90;;
75429;SDS011;64127;51.488;5.462;2023-04-06T09:03:57;17.40;;;13.87;;
75429;SDS011;64127;51.488;5.462;2023-04-06T09:06:32;17.90;;;13.77;;
75429;SDS011;64127;51.488;5.462;2023-04-06T09:09:04;16.67;;;13.70;;
75429;SDS011;64127;51.488;5.462;2023-04-06T09:11:45;16.40;;;13.80;;
75429;SDS011;64127;51.488;5.462;2023-04-06T09:14:33;15.93;;;13.73;;
75429;SDS011;64127;51.488;5.462;2023-04-06T09:17:19;17.67;;;13.57;;
75429;SDS011;64127;51.488;5.462;2023-04-06T09:20:04;18.97;;;13.60;;
75429;SDS011;64127;51.488;5.462;2023-04-06T09:22:37;17.67;;;14.07;;
75429;SDS011;64127;51.488;5.462;2023-04-06T09:25:17;17.30;;;14.10;;
75429;SDS011;64127;51.488;5.462;2023-04-06T09:27:58;18.13;;;14.17;;
75429;SDS011;64127;51.488;5.462;2023-04-06T09:30:33;16.83;;;13.43;;
75429;SDS011;64127;51.488;5.462;2023-04-06T09:33:07;17.67;;;13.67;;
75429;SDS011;64127;51.488;5.462;2023-04-06T09:35:39;14.03;;;12.53;;
75429;SDS011;64127;51.488;5.462;2023-04-06T09:38:11;14.70;;;13.13;;
75429;SDS011;64127;51.488;5.462;2023-04-06T09:40:47;17.30;;;13.43;;
75429;SDS011;64127;51.488;5.462;2023-04-06T09:43:31;15.73;;;13.30;;
75429;SDS011;64127;51.488;5.462;2023-04-06T09:46:03;15.70;;;12.67;;
75429;SDS011;64127;51.488;5.462;2023-04-06T09:48:36;16.07;;;13.00;;
75429;SDS011;64127;51.488;5.462;2023-04-06T09:51:09;14.97;;;12.63;;
75429;SDS011;64127;51.488;5.462;2023-04-06T09:53:46;17.30;;;12.43;;
75429;SDS011;64127;51.488;5.462;2023-04-06T09:56:24;18.80;;;12.50;;
75429;SDS011;64127;51.488;5.462;2023-04-06T09:59:02;16.87;;;12.23;;
75429;SDS011;64127;51.488;5.462;2023-04-06T10:01:43;14.17;;;11.47;;
75429;SDS011;64127;51.488;5.462;2023-04-06T10:04:21;13.20;;;11.40;;
75429;SDS011;64127;51.488;5.462;2023-04-06T10:07:25;12.50;;;10.67;;
75429;SDS011;64127;51.488;5.462;2023-04-06T10:09:58;13.17;;;11.30;;
75429;SDS011;64127;51.488;5.462;2023-04-06T10:12:33;12.27;;;10.70;;
75429;SDS011;64127;51.488;5.462;2023-04-06T10:15:05;12.43;;;10.30;;
75429;SDS011;64127;51.488;5.462;2023-04-06T10:17:39;14.63;;;10.20;;
75429;SDS011;64127;51.488;5.462;2023-04-06T10:20:16;12.77;;;9.90;;
75429;SDS011;64127;51.488;5.462;2023-04-06T10:23:10;13.27;;;9.37;;
75429;SDS011;64127;51.488;5.462;2023-04-06T10:25:57;12.00;;;9.10;;
75429;SDS011;64127;51.488;5.462;2023-04-06T10:28:33;10.13;;;8.87;;
75429;SDS011;64127;51.488;5.462;2023-04-06T10:31:07;9.67;;;8.70;;
75429;SDS011;64127;51.488;5.462;2023-04-06T10:33:39;10.63;;;9.60;;
75429;SDS011;64127;51.488;5.462;2023-04-06T10:36:13;11.27;;;9.33;;
75429;SDS011;64127;51.488;5.462;2023-04-06T10:38:56;10.10;;;8.90;;
75429;SDS011;64127;51.488;5.462;2023-04-06T10:41:33;10.10;;;8.67;;
75429;SDS011;64127;51.488;5.462;2023-04-06T10:44:22;14.53;;;9.50;;
75429;SDS011;64127;51.488;5.462;2023-04-06T10:46:56;10.23;;;9.13;;
75429;SDS011;64127;51.488;5.462;2023-04-06T10:49:33;13.27;;;8.40;;
75429;SDS011;64127;51.488;5.462;2023-04-06T10:52:05;12.63;;;8.20;;
75429;SDS011;64127;51.488;5.462;2023-04-06T10:54:41;9.97;;;8.10;;
75429;SDS011;64127;51.488;5.462;2023-04-06T10:57:27;8.40;;;7.50;;
75429;SDS011;64127;51.488;5.462;2023-04-06T11:00:04;8.57;;;7.67;;
75429;SDS011;64127;51.488;5.462;2023-04-06T11:02:37;8.33;;;7.53;;
75429;SDS011;64127;51.488;5.462;2023-04-06T11:05:11;7.67;;;6.70;;
75429;SDS011;64127;51.488;5.462;2023-04-06T11:07:44;7.17;;;6.47;;
75429;SDS011;64127;51.488;5.462;2023-04-06T11:10:20;8.13;;;6.63;;
75429;SDS011;64127;51.488;5.462;2023-04-06T11:12:54;7.10;;;5.97;;
75429;SDS011;64127;51.488;5.462;2023-04-06T11:15:26;7.30;;;6.60;;
75429;SDS011;64127;51.488;5.462;2023-04-06T11:18:10;7.67;;;6.60;;
75429;SDS011;64127;51.488;5.462;2023-04-06T11:20:47;7.80;;;7.00;;
75429;SDS011;64127;51.488;5.462;2023-04-06T11:23:23;8.57;;;6.80;;
75429;SDS011;64127;51.488;5.462;2023-04-06T11:25:58;8.57;;;6.67;;
75429;SDS011;64127;51.488;5.462;2023-04-06T11:28:30;7.40;;;6.30;;
75429;SDS011;64127;51.488;5.462;2023-04-06T11:31:02;8.80;;;6.70;;
75429;SDS011;64127;51.488;5.462;2023-04-06T11:33:35;9.33;;;6.77;;
75429;SDS011;64127;51.488;5.462;2023-04-06T11:36:11;8.40;;;6.90;;
75429;SDS011;64127;51.488;5.462;2023-04-06T11:38:46;8.10;;;7.10;;
75429;SDS011;64127;51.488;5.462;2023-04-06T11:41:18;8.03;;;7.17;;
75429;SDS011;64127;51.488;5.462;2023-04-06T11:43:57;8.33;;;7.33;;
75429;SDS011;64127;51.488;5.462;2023-04-06T11:46:29;9.67;;;7.60;;
75429;SDS011;64127;51.488;5.462;2023-04-06T11:49:01;8.30;;;7.37;;
75429;SDS011;64127;51.488;5.462;2023-04-06T11:51:35;7.83;;;7.13;;
75429;SDS011;64127;51.488;5.462;2023-04-06T11:54:08;9.03;;;7.97;;
75429;SDS011;64127;51.488;5.462;2023-04-06T11:56:41;8.97;;;8.03;;
75429;SDS011;64127;51.488;5.462;2023-04-06T11:59:13;9.03;;;7.53;;
75429;SDS011;64127;51.488;5.462;2023-04-06T12:01:45;10.63;;;8.17;;
75429;SDS011;64127;51.488;5.462;2023-04-06T12:04:17;8.67;;;7.87;;
75429;SDS011;64127;51.488;5.462;2023-04-06T12:06:49;9.47;;;8.47;;
75429;SDS011;64127;51.488;5.462;2023-04-06T12:09:21;9.70;;;8.27;;
75429;SDS011;64127;51.488;5.462;2023-04-06T12:11:54;9.77;;;8.50;;
75429;SDS011;64127;51.488;5.462;2023-04-06T12:14:27;9.43;;;8.33;;
75429;SDS011;64127;51.488;5.462;2023-04-06T12:16:59;9.33;;;7.80;;
75429;SDS011;64127;51.488;5.462;2023-04-06T12:19:31;10.40;;;8.40;;
75429;SDS011;64127;51.488;5.462;2023-04-06T12:22:03;9.57;;;8.57;;
75429;SDS011;64127;51.488;5.462;2023-04-06T12:24:35;8.90;;;8.00;;
75429;SDS011;64127;51.488;5.462;2023-04-06T12:27:07;9.30;;;8.17;;
75429;SDS011;64127;51.488;5.462;2023-04-06T12:29:41;11.03;;;8.90;;
75429;SDS011;64127;51.488;5.462;2023-04-06T12:32:13;11.33;;;8.70;;
75429;SDS011;64127;51.488;5.462;2023-04-06T12:34:46;9.53;;;8.53;;
75429;SDS011;64127;51.488;5.462;2023-04-06T12:37:18;9.23;;;8.33;;
75429;SDS011;64127;51.488;5.462;2023-04-06T12:39:52;9.30;;;8.33;;
75429;SDS011;64127;51.488;5.462;2023-04-06T12:42:24;9.37;;;8.13;;
75429;SDS011;64127;51.488;5.462;2023-04-06T12:44:56;9.27;;;8.30;;
75429;SDS011;64127;51.488;5.462;2023-04-06T12:47:28;9.10;;;8.20;;
75429;SDS011;64127;51.488;5.462;2023-04-06T12:50:00;9.43;;;8.00;;
75429;SDS011;64127;51.488;5.462;2023-04-06T12:52:33;9.90;;;8.03;;
75429;SDS011;64127;51.488;5.462;2023-04-06T12:55:06;8.93;;;8.13;;
75429;SDS011;64127;51.488;5.462;2023-04-06T12:57:39;9.37;;;8.33;;
75429;SDS011;64127;51.488;5.462;2023-04-06T13:00:12;9.43;;;8.43;;
75429;SDS011;64127;51.488;5.462;2023-04-06T13:02:46;8.90;;;8.00;;
75429;SDS011;64127;51.488;5.462;2023-04-06T13:05:18;9.13;;;8.17;;
75429;SDS011;64127;51.488;5.462;2023-04-06T13:07:50;9.03;;;8.13;;
75429;SDS011;64127;51.488;5.462;2023-04-06T13:10:22;9.20;;;8.30;;
75429;SDS011;64127;51.488;5.462;2023-04-06T13:12:54;9.20;;;8.30;;
75429;SDS011;64127;51.488;5.462;2023-04-06T13:15:26;9.47;;;8.57;;
75429;SDS011;64127;51.488;5.462;2023-04-06T13:17:58;9.37;;;8.30;;
75429;SDS011;64127;51.488;5.462;2023-04-06T13:20:30;9.30;;;8.13;;
75429;SDS011;64127;51.488;5.462;2023-04-06T13:23:03;9.63;;;8.50;;
75429;SDS011;64127;51.488;5.462;2023-04-06T13:25:35;9.43;;;8.53;;
75429;SDS011;64127;51.488;5.462;2023-04-06T13:28:07;9.10;;;8.20;;
75429;SDS011;64127;51.488;5.462;2023-04-06T13:30:41;9.67;;;8.63;;
75429;SDS011;64127;51.488;5.462;2023-04-06T13:33:13;9.80;;;8.73;;
75429;SDS011;64127;51.488;5.462;2023-04-06T13:35:45;9.43;;;8.50;;
75429;SDS011;64127;51.488;5.462;2023-04-06T13:38:18;10.30;;;8.70;;
75429;SDS011;64127;51.488;5.462;2023-04-06T13:40:50;10.27;;;9.00;;
75429;SDS011;64127;51.488;5.462;2023-04-06T13:43:23;9.70;;;8.77;;
75429;SDS011;64127;51.488;5.462;2023-04-06T13:45:57;9.33;;;8.43;;
75429;SDS011;64127;51.488;5.462;2023-04-06T13:48:32;9.20;;;8.30;;
75429;SDS011;64127;51.488;5.462;2023-04-06T13:53:43;8.50;;;7.70;;
75429;SDS011;64127;51.488;5.462;2023-04-06T13:56:15;8.60;;;7.70;;
75429;SDS011;64127;51.488;5.462;2023-04-06T13:58:47;8.50;;;7.70;;
75429;SDS011;64127;51.488;5.462;2023-04-06T14:01:19;8.43;;;7.63;;
75429;SDS011;64127;51.488;5.462;2023-04-06T14:03:51;8.43;;;7.63;;
75429;SDS011;64127;51.488;5.462;2023-04-06T14:06:24;9.07;;;7.57;;
75429;SDS011;64127;51.488;5.462;2023-04-06T14:09:02;8.93;;;7.97;;
75429;SDS011;64127;51.488;5.462;2023-04-06T14:11:35;9.07;;;7.47;;
75429;SDS011;64127;51.488;5.462;2023-04-06T14:14:08;8.47;;;7.63;;
75429;SDS011;64127;51.488;5.462;2023-04-06T14:16:40;9.30;;;8.13;;
75429;SDS011;64127;51.488;5.462;2023-04-06T14:19:15;9.03;;;8.13;;
75429;SDS011;64127;51.488;5.462;2023-04-06T14:21:48;9.07;;;8.17;;
75429;SDS011;64127;51.488;5.462;2023-04-06T14:24:20;10.83;;;8.93;;
75429;SDS011;64127;51.488;5.462;2023-04-06T14:26:53;9.97;;;8.93;;
75429;SDS011;64127;51.488;5.462;2023-04-06T14:29:25;9.27;;;8.37;;
75429;SDS011;64127;51.488;5.462;2023-04-06T14:31:57;11.57;;;9.40;;
75429;SDS011;64127;51.488;5.462;2023-04-06T14:34:31;9.83;;;8.90;;
75429;SDS011;64127;51.488;5.462;2023-04-06T14:37:03;9.80;;;8.73;;
75429;SDS011;64127;51.488;5.462;2023-04-06T14:39:35;10.07;;;9.07;;
75429;SDS011;64127;51.488;5.462;2023-04-06T14:42:07;9.80;;;8.90;;
75429;SDS011;64127;51.488;5.462;2023-04-06T14:44:39;13.27;;;11.95;;
75429;SDS011;64127;51.488;5.462;2023-04-06T14:47:14;11.20;;;10.03;;
75429;SDS011;64127;51.488;5.462;2023-04-06T14:49:51;14.20;;;12.73;;
75429;SDS011;64127;51.488;5.462;2023-04-06T14:52:24;35.00;;;31.83;;
75429;SDS011;64127;51.488;5.462;2023-04-06T14:54:56;18.20;;;16.50;;
75429;SDS011;64127;51.488;5.462;2023-04-06T14:57:28;14.03;;;12.63;;
75429;SDS011;64127;51.488;5.462;2023-04-06T15:00:00;12.00;;;10.47;;
75429;SDS011;64127;51.488;5.462;2023-04-06T15:02:34;12.00;;;10.60;;
75429;SDS011;64127;51.488;5.462;2023-04-06T15:05:07;10.87;;;9.77;;